sensor_id;sensor_type;location;lat;lon;timestamp;pressure;altitude;pressure_sealevel;temperature;humidity
23253;BME280;11795;47.054;15.408;2023-02-03T00:00:01;98230;;;3.0;88.1
23253;BME280;11795;47.054;15.408;2023-02-03T00:02:00;98240;;;3.2;87.5
23253;BME280;11795;47.054;15.408;2023-02-03T00:04:00;98230;;;3.0;88.0
23253;BME280;11795;47.054;15.408;2023-02-03T00:06:01;98220;;;3.1;88.3
23253;BME280;11795;47.054;15.408;2023-02-03T00:08:01;98220;;;3.0;88.1
23253;BME280;11795;47.054;15.408;2023-02-03T00:10:00;98220;;;2.9;88.5
23253;BME280;11795;47.054;15.408;2023-02-03T00:12:00;98220;;;3.1;88.2
23253;BME280;11795;47.054;15.408;2023-02-03T00:14:00;98220;;;2.9;88.6
23253;BME280;11795;47.054;15.408;2023-02-03T00:16:01;98210;;;3.0;88.9
23253;BME280;11795;47.054;15.408;2023-02-03T00:18:00;98210;;;2.9;88.6
23253;BME280;11795;47.054;15.408;2023-02-03T00:20:00;98210;;;2.8;89.0
23253;BME280;11795;47.054;15.408;2023-02-03T00:22:00;98210;;;3.0;88.4
23253;BME280;11795;47.054;15.408;2023-02-03T00:24:00;98200;;;2.8;88.7
23253;BME280;11795;47.054;15.408;2023-02-03T00:26:06;98200;;;2.8;88.8
23253;BME280;11795;47.054;15.408;2023-02-03T00:28:01;98200;;;2.7;88.8
23253;BME280;11795;47.054;15.408;2023-02-03T00:30:00;98210;;;2.6;89.0
23253;BME280;11795;47.054;15.408;2023-02-03T00:32:00;98210;;;2.7;88.8
23253;BME280;11795;47.054;15.408;2023-02-03T00:34:00;98220;;;2.6;89.3
23253;BME280;11795;47.054;15.408;2023-02-03T00:36:04;98220;;;2.7;89.5
23253;BME280;11795;47.054;15.408;2023-02-03T00:38:00;98220;;;2.6;89.3
23253;BME280;11795;47.054;15.408;2023-02-03T00:40:00;98220;;;2.6;89.5
23253;BME280;11795;47.054;15.408;2023-02-03T00:42:00;98220;;;2.7;89.0
23253;BME280;11795;47.054;15.408;2023-02-03T00:44:00;98220;;;2.5;89.5
23253;BME280;11795;47.054;15.408;2023-02-03T00:46:00;98220;;;2.6;89.7
23253;BME280;11795;47.054;15.408;2023-02-03T00:48:00;98210;;;2.6;89.4
23253;BME280;11795;47.054;15.408;2023-02-03T00:50:00;98220;;;2.5;89.7
23253;BME280;11795;47.054;15.408;2023-02-03T00:52:00;98220;;;2.7;89.2
23253;BME280;11795;47.054;15.408;2023-02-03T00:54:00;98220;;;2.5;89.8
23253;BME280;11795;47.054;15.408;2023-02-03T00:56:00;98210;;;2.6;90.0
23253;BME280;11795;47.054;15.408;2023-02-03T00:58:00;98210;;;2.7;88.9
23253;BME280;11795;47.054;15.408;2023-02-03T01:00:00;98210;;;2.5;89.1
23253;BME280;11795;47.054;15.408;2023-02-03T01:02:00;98220;;;2.6;89.1
23253;BME280;11795;47.054;15.408;2023-02-03T01:04:00;98220;;;2.4;90.1
23253;BME280;11795;47.054;15.408;2023-02-03T01:06:09;98220;;;2.6;89.7
23253;BME280;11795;47.054;15.408;2023-02-03T01:08:00;98220;;;2.5;89.8
23253;BME280;11795;47.054;15.408;2023-02-03T01:10:00;98220;;;2.3;90.2
23253;BME280;11795;47.054;15.408;2023-02-03T01:12:01;98210;;;2.5;89.8
23253;BME280;11795;47.054;15.408;2023-02-03T01:14:01;98220;;;2.3;90.2
23253;BME280;11795;47.054;15.408;2023-02-03T01:16:00;98220;;;2.4;90.4
23253;BME280;11795;47.054;15.408;2023-02-03T01:18:00;98210;;;2.4;90.0
23253;BME280;11795;47.054;15.408;2023-02-03T01:20:00;98200;;;2.3;90.5
23253;BME280;11795;47.054;15.408;2023-02-03T01:22:00;98200;;;2.5;90.1
23253;BME280;11795;47.054;15.408;2023-02-03T01:24:01;98200;;;2.3;90.4
23253;BME280;11795;47.054;15.408;2023-02-03T01:26:02;98190;;;2.4;90.6
23253;BME280;11795;47.054;15.408;2023-02-03T01:28:00;98190;;;2.4;90.2
23253;BME280;11795;47.054;15.408;2023-02-03T01:30:00;98190;;;2.3;90.5
23253;BME280;11795;47.054;15.408;2023-02-03T01:32:00;98180;;;2.5;90.1
23253;BME280;11795;47.054;15.408;2023-02-03T01:34:00;98180;;;2.4;90.4
23253;BME280;11795;47.054;15.408;2023-02-03T01:36:01;98180;;;2.4;90.7
23253;BME280;11795;47.054;15.408;2023-02-03T01:38:00;98190;;;2.4;90.4
23253;BME280;11795;47.054;15.408;2023-02-03T01:40:00;98190;;;2.4;90.7
23253;BME280;11795;47.054;15.408;2023-02-03T01:42:00;98170;;;2.5;90.3
23253;BME280;11795;47.054;15.408;2023-02-03T01:44:01;98170;;;2.4;90.6
23253;BME280;11795;47.054;15.408;2023-02-03T01:46:02;98170;;;2.4;90.7
23253;BME280;11795;47.054;15.408;2023-02-03T01:48:00;98160;;;2.4;90.3
23253;BME280;11795;47.054;15.408;2023-02-03T01:50:07;98160;;;2.3;90.5
23253;BME280;11795;47.054;15.408;2023-02-03T01:52:00;98160;;;2.4;90.2
23253;BME280;11795;47.054;15.408;2023-02-03T01:54:00;98170;;;2.3;90.5
23253;BME280;11795;47.054;15.408;2023-02-03T01:56:02;98170;;;2.3;90.7
23253;BME280;11795;47.054;15.408;2023-02-03T01:58:03;98160;;;2.4;90.3
23253;BME280;11795;47.054;15.408;2023-02-03T02:00:02;98160;;;2.3;90.6
23253;BME280;11795;47.054;15.408;2023-02-03T02:02:01;98160;;;2.4;90.2
23253;BME280;11795;47.054;15.408;2023-02-03T02:04:02;98180;;;2.3;90.7
23253;BME280;11795;47.054;15.408;2023-02-03T02:06:04;98170;;;2.3;91.0
23253;BME280;11795;47.054;15.408;2023-02-03T02:08:01;98150;;;2.3;90.6
23253;BME280;11795;47.054;15.408;2023-02-03T02:10:00;98150;;;2.3;90.9
23253;BME280;11795;47.054;15.408;2023-02-03T02:12:00;98160;;;2.5;90.4
23253;BME280;11795;47.054;15.408;2023-02-03T02:14:01;98160;;;2.3;90.8
23253;BME280;11795;47.054;15.408;2023-02-03T02:16:05;98150;;;2.4;90.9
23253;BME280;11795;47.054;15.408;2023-02-03T02:18:09;98150;;;2.3;90.5
23253;BME280;11795;47.054;15.408;2023-02-03T02:22:07;98150;;;2.4;90.1
23253;BME280;11795;47.054;15.408;2023-02-03T02:26:17;98150;;;2.3;90.4
23253;BME280;11795;47.054;15.408;2023-02-03T02:30:17;98160;;;2.2;90.9
23253;BME280;11795;47.054;15.408;2023-02-03T02:32:05;98150;;;2.3;90.6
23253;BME280;11795;47.054;15.408;2023-02-03T02:34:06;98150;;;2.2;90.9
23253;BME280;11795;47.054;15.408;2023-02-03T02:36:07;98150;;;2.2;91.3
23253;BME280;11795;47.054;15.408;2023-02-03T02:38:04;98150;;;2.3;90.8
23253;BME280;11795;47.054;15.408;2023-02-03T02:40:07;98150;;;2.2;91.2
23253;BME280;11795;47.054;15.408;2023-02-03T02:42:05;98150;;;2.3;90.7
23253;BME280;11795;47.054;15.408;2023-02-03T02:44:06;98150;;;2.2;90.9
23253;BME280;11795;47.054;15.408;2023-02-03T02:46:02;98150;;;2.2;91.2
23253;BME280;11795;47.054;15.408;2023-02-03T02:48:06;98140;;;2.3;90.6
23253;BME280;11795;47.054;15.408;2023-02-03T02:50:04;98150;;;2.2;90.6
23253;BME280;11795;47.054;15.408;2023-02-03T02:52:03;98140;;;2.2;90.2
23253;BME280;11795;47.054;15.408;2023-02-03T02:54:04;98150;;;2.0;90.7
23253;BME280;11795;47.054;15.408;2023-02-03T02:56:02;98150;;;2.0;91.1
23253;BME280;11795;47.054;15.408;2023-02-03T02:58:03;98150;;;2.1;90.6
23253;BME280;11795;47.054;15.408;2023-02-03T03:00:00;98140;;;2.0;90.9
23253;BME280;11795;47.054;15.408;2023-02-03T03:02:01;98140;;;2.1;90.6
23253;BME280;11795;47.054;15.408;2023-02-03T03:04:04;98140;;;1.9;90.9
23253;BME280;11795;47.054;15.408;2023-02-03T03:06:02;98130;;;1.9;91.2
23253;BME280;11795;47.054;15.408;2023-02-03T03:08:02;98130;;;2.0;90.9
23253;BME280;11795;47.054;15.408;2023-02-03T03:10:03;98130;;;1.9;91.4
23253;BME280;11795;47.054;15.408;2023-02-03T03:12:03;98130;;;2.0;90.9
23253;BME280;11795;47.054;15.408;2023-02-03T03:14:01;98120;;;1.9;91.1
23253;BME280;11795;47.054;15.408;2023-02-03T03:16:03;98130;;;1.8;91.5
23253;BME280;11795;47.054;15.408;2023-02-03T03:18:05;98130;;;1.9;91.0
23253;BME280;11795;47.054;15.408;2023-02-03T03:20:02;98130;;;1.8;91.2
23253;BME280;11795;47.054;15.408;2023-02-03T03:22:03;98120;;;1.9;90.6
23253;BME280;11795;47.054;15.408;2023-02-03T03:24:04;98120;;;1.7;90.9
23253;BME280;11795;47.054;15.408;2023-02-03T03:26:08;98130;;;1.7;91.4
23253;BME280;11795;47.054;15.408;2023-02-03T03:28:02;98130;;;1.7;91.0
23253;BME280;11795;47.054;15.408;2023-02-03T03:30:02;98130;;;1.6;91.4
23253;BME280;11795;47.054;15.408;2023-02-03T03:32:01;98130;;;1.8;91.0
23253;BME280;11795;47.054;15.408;2023-02-03T03:34:00;98130;;;1.7;91.3
23253;BME280;11795;47.054;15.408;2023-02-03T03:36:03;98130;;;1.6;91.6
23253;BME280;11795;47.054;15.408;2023-02-03T03:38:08;98130;;;1.7;91.2
23253;BME280;11795;47.054;15.408;2023-02-03T03:40:07;98130;;;1.6;91.6
23253;BME280;11795;47.054;15.408;2023-02-03T03:42:05;98140;;;1.8;91.4
23253;BME280;11795;47.054;15.408;2023-02-03T03:44:03;98140;;;1.7;91.1
23253;BME280;11795;47.054;15.408;2023-02-03T03:46:02;98150;;;1.6;90.7
23253;BME280;11795;47.054;15.408;2023-02-03T03:48:04;98150;;;1.5;90.5
23253;BME280;11795;47.054;15.408;2023-02-03T03:50:02;98150;;;1.4;91.0
23253;BME280;11795;47.054;15.408;2023-02-03T03:52:03;98150;;;1.5;91.0
23253;BME280;11795;47.054;15.408;2023-02-03T03:54:04;98150;;;1.4;91.3
23253;BME280;11795;47.054;15.408;2023-02-03T03:56:02;98150;;;1.4;91.5
23253;BME280;11795;47.054;15.408;2023-02-03T03:58:03;98160;;;1.4;91.2
23253;BME280;11795;47.054;15.408;2023-02-03T04:00:02;98150;;;1.3;91.8
23253;BME280;11795;47.054;15.408;2023-02-03T04:02:03;98150;;;1.4;91.6
23253;BME280;11795;47.054;15.408;2023-02-03T04:04:04;98150;;;1.3;92.1
23253;BME280;11795;47.054;15.408;2023-02-03T04:06:00;98150;;;1.2;92.6
23253;BME280;11795;47.054;15.408;2023-02-03T04:08:02;98150;;;1.2;92.3
23253;BME280;11795;47.054;15.408;2023-02-03T04:10:01;98150;;;1.2;92.7
23253;BME280;11795;47.054;15.408;2023-02-03T04:12:00;98140;;;1.4;92.5
23253;BME280;11795;47.054;15.408;2023-02-03T04:14:00;98140;;;1.3;92.6
23253;BME280;11795;47.054;15.408;2023-02-03T04:16:00;98140;;;1.2;92.8
23253;BME280;11795;47.054;15.408;2023-02-03T04:18:01;98150;;;1.2;92.6
23253;BME280;11795;47.054;15.408;2023-02-03T04:20:00;98150;;;1.2;92.9
23253;BME280;11795;47.054;15.408;2023-02-03T04:22:00;98150;;;1.3;92.6
23253;BME280;11795;47.054;15.408;2023-02-03T04:24:00;98130;;;1.1;93.0
23253;BME280;11795;47.054;15.408;2023-02-03T04:26:00;98140;;;1.0;93.2
23253;BME280;11795;47.054;15.408;2023-02-03T04:28:01;98140;;;1.2;92.9
23253;BME280;11795;47.054;15.408;2023-02-03T04:30:00;98130;;;1.1;93.3
23253;BME280;11795;47.054;15.408;2023-02-03T04:32:00;98130;;;1.3;92.9
23253;BME280;11795;47.054;15.408;2023-02-03T04:34:00;98140;;;1.2;93.1
23253;BME280;11795;47.054;15.408;2023-02-03T04:36:00;98140;;;1.2;93.3
23253;BME280;11795;47.054;15.408;2023-02-03T04:38:00;98130;;;1.3;92.9
23253;BME280;11795;47.054;15.408;2023-02-03T04:40:00;98150;;;1.2;93.4
23253;BME280;11795;47.054;15.408;2023-02-03T04:42:00;98140;;;1.4;93.1
23253;BME280;11795;47.054;15.408;2023-02-03T04:44:00;98140;;;1.3;93.2
23253;BME280;11795;47.054;15.408;2023-02-03T04:46:00;98140;;;1.3;93.4
23253;BME280;11795;47.054;15.408;2023-02-03T04:48:00;98140;;;1.4;93.0
23253;BME280;11795;47.054;15.408;2023-02-03T04:50:00;98160;;;1.3;93.4
23253;BME280;11795;47.054;15.408;2023-02-03T04:52:00;98150;;;1.5;93.0
23253;BME280;11795;47.054;15.408;2023-02-03T04:54:00;98140;;;1.4;93.1
23253;BME280;11795;47.054;15.408;2023-02-03T04:56:00;98140;;;1.4;93.1
23253;BME280;11795;47.054;15.408;2023-02-03T04:58:00;98140;;;1.5;92.6
23253;BME280;11795;47.054;15.408;2023-02-03T05:00:00;98130;;;1.4;93.0
23253;BME280;11795;47.054;15.408;2023-02-03T05:02:01;98130;;;1.5;92.7
23253;BME280;11795;47.054;15.408;2023-02-03T05:04:00;98140;;;1.4;93.0
23253;BME280;11795;47.054;15.408;2023-02-03T05:06:00;98140;;;1.3;93.4
23253;BME280;11795;47.054;15.408;2023-02-03T05:08:00;98140;;;1.5;92.8
23253;BME280;11795;47.054;15.408;2023-02-03T05:10:00;98140;;;1.3;93.2
23253;BME280;11795;47.054;15.408;2023-02-03T05:12:00;98140;;;1.5;93.0
23253;BME280;11795;47.054;15.408;2023-02-03T05:14:00;98130;;;1.4;93.2
23253;BME280;11795;47.054;15.408;2023-02-03T05:16:00;98120;;;1.3;93.5
23253;BME280;11795;47.054;15.408;2023-02-03T05:18:01;98120;;;1.4;93.3
23253;BME280;11795;47.054;15.408;2023-02-03T05:20:00;98120;;;1.4;93.7
23253;BME280;11795;47.054;15.408;2023-02-03T05:22:00;98110;;;1.5;93.5
23253;BME280;11795;47.054;15.408;2023-02-03T05:24:02;98120;;;1.4;93.6
23253;BME280;11795;47.054;15.408;2023-02-03T05:26:00;98120;;;1.4;93.9
23253;BME280;11795;47.054;15.408;2023-02-03T05:28:00;98120;;;1.4;93.6
23253;BME280;11795;47.054;15.408;2023-02-03T05:30:00;98130;;;1.4;94.0
23253;BME280;11795;47.054;15.408;2023-02-03T05:32:00;98130;;;1.6;93.8
23253;BME280;11795;47.054;15.408;2023-02-03T05:34:00;98120;;;1.4;94.0
23253;BME280;11795;47.054;15.408;2023-02-03T05:36:00;98130;;;1.4;94.4
23253;BME280;11795;47.054;15.408;2023-02-03T05:38:00;98130;;;1.5;94.0
23253;BME280;11795;47.054;15.408;2023-02-03T05:40:11;98130;;;1.4;94.7
23253;BME280;11795;47.054;15.408;2023-02-03T05:42:02;98130;;;1.6;94.3
23253;BME280;11795;47.054;15.408;2023-02-03T05:44:00;98130;;;1.4;94.5
23253;BME280;11795;47.054;15.408;2023-02-03T05:46:00;98120;;;1.4;94.7
23253;BME280;11795;47.054;15.408;2023-02-03T05:48:01;98130;;;1.5;94.3
23253;BME280;11795;47.054;15.408;2023-02-03T05:50:00;98130;;;1.4;94.6
23253;BME280;11795;47.054;15.408;2023-02-03T05:52:00;98120;;;1.6;94.4
23253;BME280;11795;47.054;15.408;2023-02-03T05:54:00;98130;;;1.5;94.5
23253;BME280;11795;47.054;15.408;2023-02-03T05:56:00;98120;;;1.4;94.8
23253;BME280;11795;47.054;15.408;2023-02-03T05:58:00;98120;;;1.6;94.4
23253;BME280;11795;47.054;15.408;2023-02-03T06:00:00;98120;;;1.5;94.8
23253;BME280;11795;47.054;15.408;2023-02-03T06:02:00;98120;;;1.7;94.4
23253;BME280;11795;47.054;15.408;2023-02-03T06:04:01;98120;;;1.5;94.6
23253;BME280;11795;47.054;15.408;2023-02-03T06:06:00;98110;;;1.5;94.9
23253;BME280;11795;47.054;15.408;2023-02-03T06:08:00;98110;;;1.6;94.3
23253;BME280;11795;47.054;15.408;2023-02-03T06:10:00;98110;;;1.5;94.6
23253;BME280;11795;47.054;15.408;2023-02-03T06:12:00;98110;;;1.7;94.4
23253;BME280;11795;47.054;15.408;2023-02-03T06:14:00;98100;;;1.6;94.5
23253;BME280;11795;47.054;15.408;2023-02-03T06:16:00;98100;;;1.5;95.0
23253;BME280;11795;47.054;15.408;2023-02-03T06:18:00;98100;;;1.7;94.3
23253;BME280;11795;47.054;15.408;2023-02-03T06:20:02;98100;;;1.6;94.5
23253;BME280;11795;47.054;15.408;2023-02-03T06:22:00;98100;;;1.8;94.1
23253;BME280;11795;47.054;15.408;2023-02-03T06:24:00;98100;;;1.6;94.1
23253;BME280;11795;47.054;15.408;2023-02-03T06:26:00;98100;;;1.6;94.6
23253;BME280;11795;47.054;15.408;2023-02-03T06:28:00;98090;;;1.7;94.1
23253;BME280;11795;47.054;15.408;2023-02-03T06:30:00;98090;;;1.6;94.6
23253;BME280;11795;47.054;15.408;2023-02-03T06:32:00;98090;;;1.8;94.2
23253;BME280;11795;47.054;15.408;2023-02-03T06:34:01;98080;;;1.7;94.3
23253;BME280;11795;47.054;15.408;2023-02-03T06:36:00;98090;;;1.7;94.6
23253;BME280;11795;47.054;15.408;2023-02-03T06:38:00;98080;;;1.7;94.4
23253;BME280;11795;47.054;15.408;2023-02-03T06:40:00;98080;;;1.7;94.8
23253;BME280;11795;47.054;15.408;2023-02-03T06:42:00;98070;;;1.9;94.4
23253;BME280;11795;47.054;15.408;2023-02-03T06:44:00;98070;;;1.8;94.5
23253;BME280;11795;47.054;15.408;2023-02-03T06:46:00;98080;;;1.8;94.7
23253;BME280;11795;47.054;15.408;2023-02-03T06:48:00;98070;;;1.9;94.3
23253;BME280;11795;47.054;15.408;2023-02-03T06:50:00;98060;;;1.9;94.5
23253;BME280;11795;47.054;15.408;2023-02-03T06:52:00;98060;;;1.8;94.5
23253;BME280;11795;47.054;15.408;2023-02-03T06:54:00;98070;;;1.8;94.7
23253;BME280;11795;47.054;15.408;2023-02-03T06:56:01;98070;;;1.7;95.0
23253;BME280;11795;47.054;15.408;2023-02-03T06:58:00;98070;;;1.9;94.5
23253;BME280;11795;47.054;15.408;2023-02-03T07:00:00;98070;;;1.9;94.7
23253;BME280;11795;47.054;15.408;2023-02-03T07:02:00;98070;;;2.1;94.4
23253;BME280;11795;47.054;15.408;2023-02-03T07:04:00;98070;;;2.0;94.6
23253;BME280;11795;47.054;15.408;2023-02-03T07:06:00;98070;;;2.0;94.8
23253;BME280;11795;47.054;15.408;2023-02-03T07:08:00;98070;;;2.2;94.2
23253;BME280;11795;47.054;15.408;2023-02-03T07:10:00;98060;;;2.2;93.9
23253;BME280;11795;47.054;15.408;2023-02-03T07:12:00;98050;;;2.5;93.4
23253;BME280;11795;47.054;15.408;2023-02-03T07:14:01;98050;;;2.4;93.5
23253;BME280;11795;47.054;15.408;2023-02-03T07:16:00;98050;;;2.4;93.9
23253;BME280;11795;47.054;15.408;2023-02-03T07:18:00;98050;;;2.5;93.2
23253;BME280;11795;47.054;15.408;2023-02-03T07:20:00;98040;;;2.5;93.4
23253;BME280;11795;47.054;15.408;2023-02-03T07:22:01;98050;;;2.7;92.9
23253;BME280;11795;47.054;15.408;2023-02-03T07:24:02;98040;;;2.6;92.8
23253;BME280;11795;47.054;15.408;2023-02-03T07:26:01;98040;;;2.7;93.0
23253;BME280;11795;47.054;15.408;2023-02-03T07:28:00;98040;;;2.9;92.2
23253;BME280;11795;47.054;15.408;2023-02-03T07:30:00;98040;;;2.8;92.3
23253;BME280;11795;47.054;15.408;2023-02-03T07:32:01;98040;;;3.1;92.1
23253;BME280;11795;47.054;15.408;2023-02-03T07:34:00;98040;;;3.1;91.7
23253;BME280;11795;47.054;15.408;2023-02-03T07:36:00;98040;;;3.1;91.7
23253;BME280;11795;47.054;15.408;2023-02-03T07:38:00;98040;;;3.2;91.2
23253;BME280;11795;47.054;15.408;2023-02-03T07:40:00;98040;;;3.2;91.4
23253;BME280;11795;47.054;15.408;2023-02-03T07:42:00;98030;;;3.5;90.9
23253;BME280;11795;47.054;15.408;2023-02-03T07:44:00;98020;;;3.5;90.3
23253;BME280;11795;47.054;15.408;2023-02-03T07:46:01;98010;;;3.5;89.6
23253;BME280;11795;47.054;15.408;2023-02-03T07:48:00;98000;;;3.6;89.2
23253;BME280;11795;47.054;15.408;2023-02-03T07:50:00;97990;;;3.7;89.6
23253;BME280;11795;47.054;15.408;2023-02-03T07:52:00;97980;;;4.2;87.7
23253;BME280;11795;47.054;15.408;2023-02-03T07:54:00;97980;;;4.5;85.4
23253;BME280;11795;47.054;15.408;2023-02-03T07:56:01;97980;;;5.2;83.8
23253;BME280;11795;47.054;15.408;2023-02-03T07:58:00;97980;;;6.1;79.3
23253;BME280;11795;47.054;15.408;2023-02-03T08:00:00;97990;;;6.9;74.4
23253;BME280;11795;47.054;15.408;2023-02-03T08:02:00;97990;;;8.3;70.3
23253;BME280;11795;47.054;15.408;2023-02-03T08:04:04;97990;;;9.8;65.7
23253;BME280;11795;47.054;15.408;2023-02-03T08:06:00;97990;;;10.2;57.4
23253;BME280;11795;47.054;15.408;2023-02-03T08:08:00;98000;;;10.7;56.8
23253;BME280;11795;47.054;15.408;2023-02-03T08:10:00;98020;;;10.4;55.9
23253;BME280;11795;47.054;15.408;2023-02-03T08:12:00;98020;;;9.5;58.0
23253;BME280;11795;47.054;15.408;2023-02-03T08:14:00;98020;;;8.8;59.7
23253;BME280;11795;47.054;15.408;2023-02-03T08:16:00;98020;;;8.1;62.4
23253;BME280;11795;47.054;15.408;2023-02-03T08:18:00;98040;;;7.7;63.8
23253;BME280;11795;47.054;15.408;2023-02-03T08:20:00;98050;;;7.3;66.0
23253;BME280;11795;47.054;15.408;2023-02-03T08:22:00;98040;;;7.6;64.0
23253;BME280;11795;47.054;15.408;2023-02-03T08:24:00;98040;;;6.4;68.1
23253;BME280;11795;47.054;15.408;2023-02-03T08:26:00;98040;;;6.4;69.9
23253;BME280;11795;47.054;15.408;2023-02-03T08:28:00;98020;;;7.0;67.5
23253;BME280;11795;47.054;15.408;2023-02-03T08:30:00;98030;;;6.5;67.9
23253;BME280;11795;47.054;15.408;2023-02-03T08:32:00;98030;;;6.5;70.3
23253;BME280;11795;47.054;15.408;2023-02-03T08:34:00;98030;;;6.6;70.0
23253;BME280;11795;47.054;15.408;2023-02-03T08:36:03;98020;;;6.0;70.3
23253;BME280;11795;47.054;15.408;2023-02-03T08:38:00;98010;;;5.6;71.7
23253;BME280;11795;47.054;15.408;2023-02-03T08:40:00;98030;;;5.6;73.7
23253;BME280;11795;47.054;15.408;2023-02-03T08:42:00;98020;;;5.7;72.7
23253;BME280;11795;47.054;15.408;2023-02-03T08:44:00;98020;;;5.3;73.7
23253;BME280;11795;47.054;15.408;2023-02-03T08:46:01;98040;;;5.2;74.2
23253;BME280;11795;47.054;15.408;2023-02-03T08:48:00;98040;;;5.2;74.6
23253;BME280;11795;47.054;15.408;2023-02-03T08:50:00;98020;;;5.2;76.3
23253;BME280;11795;47.054;15.408;2023-02-03T08:52:00;98020;;;5.3;75.3
23253;BME280;11795;47.054;15.408;2023-02-03T08:54:00;98020;;;5.3;75.5
23253;BME280;11795;47.054;15.408;2023-02-03T08:56:03;98020;;;5.0;75.0
23253;BME280;11795;47.054;15.408;2023-02-03T08:58:00;98010;;;5.0;76.8
23253;BME280;11795;47.054;15.408;2023-02-03T09:00:01;98000;;;5.4;78.2
23253;BME280;11795;47.054;15.408;2023-02-03T09:02:00;98000;;;5.8;74.9
23253;BME280;11795;47.054;15.408;2023-02-03T09:04:01;98000;;;5.5;73.8
23253;BME280;11795;47.054;15.408;2023-02-03T09:06:00;98000;;;5.3;74.1
23253;BME280;11795;47.054;15.408;2023-02-03T09:08:00;97980;;;5.4;74.3
23253;BME280;11795;47.054;15.408;2023-02-03T09:10:00;97970;;;5.2;75.0
23253;BME280;11795;47.054;15.408;2023-02-03T09:12:01;97970;;;5.5;75.9
23253;BME280;11795;47.054;15.408;2023-02-03T09:14:00;97980;;;5.6;75.7
23253;BME280;11795;47.054;15.408;2023-02-03T09:16:00;97990;;;5.7;74.4
23253;BME280;11795;47.054;15.408;2023-02-03T09:18:00;98000;;;5.8;73.5
23253;BME280;11795;47.054;15.408;2023-02-03T09:20:00;98000;;;5.8;73.4
23253;BME280;11795;47.054;15.408;2023-02-03T09:22:00;98000;;;6.2;74.5
23253;BME280;11795;47.054;15.408;2023-02-03T09:24:01;97990;;;6.3;73.0
23253;BME280;11795;47.054;15.408;2023-02-03T09:26:01;97980;;;6.8;72.2
23253;BME280;11795;47.054;15.408;2023-02-03T09:28:00;97990;;;7.1;69.7
23253;BME280;11795;47.054;15.408;2023-02-03T09:30:00;98000;;;7.4;69.6
23253;BME280;11795;47.054;15.408;2023-02-03T09:32:05;97990;;;7.9;68.3
23253;BME280;11795;47.054;15.408;2023-02-03T09:34:01;97980;;;7.9;67.7
23253;BME280;11795;47.054;15.408;2023-02-03T09:36:01;97980;;;8.0;66.2
23253;BME280;11795;47.054;15.408;2023-02-03T09:38:00;97990;;;8.3;67.0
23253;BME280;11795;47.054;15.408;2023-02-03T09:40:00;97970;;;8.3;64.3
23253;BME280;11795;47.054;15.408;2023-02-03T09:42:13;97980;;;8.2;64.1
23253;BME280;11795;47.054;15.408;2023-02-03T09:44:06;97980;;;8.2;63.8
23253;BME280;11795;47.054;15.408;2023-02-03T09:46:01;97980;;;8.1;63.9
23253;BME280;11795;47.054;15.408;2023-02-03T09:48:05;97980;;;8.2;65.4
23253;BME280;11795;47.054;15.408;2023-02-03T09:50:02;97970;;;8.1;65.5
23253;BME280;11795;47.054;15.408;2023-02-03T09:52:02;97960;;;8.2;64.2
23253;BME280;11795;47.054;15.408;2023-02-03T09:54:04;97950;;;8.0;64.8
23253;BME280;11795;47.054;15.408;2023-02-03T09:56:00;97960;;;8.3;65.2
23253;BME280;11795;47.054;15.408;2023-02-03T09:58:03;97960;;;8.6;63.8
23253;BME280;11795;47.054;15.408;2023-02-03T10:00:08;97960;;;8.7;64.0
23253;BME280;11795;47.054;15.408;2023-02-03T10:02:04;97950;;;8.9;63.6
23253;BME280;11795;47.054;15.408;2023-02-03T10:04:04;97950;;;8.9;62.5
23253;BME280;11795;47.054;15.408;2023-02-03T10:06:08;97950;;;8.7;62.5
23253;BME280;11795;47.054;15.408;2023-02-03T10:08:06;97950;;;8.8;62.6
23253;BME280;11795;47.054;15.408;2023-02-03T10:10:08;97940;;;8.7;63.2
23253;BME280;11795;47.054;15.408;2023-02-03T10:12:15;97940;;;8.9;62.5
23253;BME280;11795;47.054;15.408;2023-02-03T10:14:07;97940;;;8.9;63.0
23253;BME280;11795;47.054;15.408;2023-02-03T10:16:10;97930;;;9.0;62.7
23253;BME280;11795;47.054;15.408;2023-02-03T10:18:04;97920;;;9.2;61.7
23253;BME280;11795;47.054;15.408;2023-02-03T10:20:03;97930;;;9.1;60.1
23253;BME280;11795;47.054;15.408;2023-02-03T10:22:02;97930;;;9.1;59.8
23253;BME280;11795;47.054;15.408;2023-02-03T10:24:03;97910;;;9.0;60.7
23253;BME280;11795;47.054;15.408;2023-02-03T10:26:02;97910;;;9.0;60.5
23253;BME280;11795;47.054;15.408;2023-02-03T10:28:03;97890;;;9.3;59.4
23253;BME280;11795;47.054;15.408;2023-02-03T10:30:05;97890;;;9.3;59.9
23253;BME280;11795;47.054;15.408;2023-02-03T10:32:00;97900;;;9.6;60.3
23253;BME280;11795;47.054;15.408;2023-02-03T10:34:08;97890;;;9.6;58.9
23253;BME280;11795;47.054;15.408;2023-02-03T10:36:04;97880;;;9.8;59.0
23253;BME280;11795;47.054;15.408;2023-02-03T10:38:00;97860;;;10.0;57.5
23253;BME280;11795;47.054;15.408;2023-02-03T10:40:00;97850;;;10.0;57.9
23253;BME280;11795;47.054;15.408;2023-02-03T10:42:02;97840;;;10.1;57.7
23253;BME280;11795;47.054;15.408;2023-02-03T10:44:03;97840;;;10.0;57.2
23253;BME280;11795;47.054;15.408;2023-02-03T10:46:00;97850;;;9.9;58.3
23253;BME280;11795;47.054;15.408;2023-02-03T10:48:01;97850;;;9.9;58.0
23253;BME280;11795;47.054;15.408;2023-02-03T10:50:02;97840;;;10.0;58.4
23253;BME280;11795;47.054;15.408;2023-02-03T10:52:02;97820;;;10.2;58.1
23253;BME280;11795;47.054;15.408;2023-02-03T10:54:00;97810;;;10.3;56.9
23253;BME280;11795;47.054;15.408;2023-02-03T10:56:04;97790;;;10.2;56.0
23253;BME280;11795;47.054;15.408;2023-02-03T10:58:09;97790;;;10.4;56.6
23253;BME280;11795;47.054;15.408;2023-02-03T11:02:06;97800;;;10.5;56.0
23253;BME280;11795;47.054;15.408;2023-02-03T11:04:02;97800;;;10.4;57.9
23253;BME280;11795;47.054;15.408;2023-02-03T11:06:10;97800;;;10.7;56.9
23253;BME280;11795;47.054;15.408;2023-02-03T11:08:00;97790;;;10.8;57.3
23253;BME280;11795;47.054;15.408;2023-02-03T11:10:00;97790;;;10.8;57.3
23253;BME280;11795;47.054;15.408;2023-02-03T11:12:05;97790;;;10.9;56.8
23253;BME280;11795;47.054;15.408;2023-02-03T11:14:10;97800;;;10.2;58.4
23253;BME280;11795;47.054;15.408;2023-02-03T11:16:02;97800;;;10.2;58.6
23253;BME280;11795;47.054;15.408;2023-02-03T11:18:00;97800;;;10.0;60.1
23253;BME280;11795;47.054;15.408;2023-02-03T11:20:03;97790;;;9.8;60.4
23253;BME280;11795;47.054;15.408;2023-02-03T11:22:00;97790;;;9.9;61.3
23253;BME280;11795;47.054;15.408;2023-02-03T11:24:04;97790;;;9.7;61.9
23253;BME280;11795;47.054;15.408;2023-02-03T11:26:08;97780;;;9.9;61.7
23253;BME280;11795;47.054;15.408;2023-02-03T11:28:04;97780;;;9.8;61.4